Asbury, Iowa
Current Conditions -  °F | °C
As of 1:53 PM on Thursday 27 Nov 2014 (Local Time) from KDBQ Reporting Station
Clear Clear  
Wind Chill:   Ceiling: Unl
Heat Index: 17°   Visibility: 10mi
Dew Point:   Wind: 12mph
Humidity: 54%   Direction: 300°WNW
Pressure: 30.38"   Gusts: NA
Location:  42.522°N, 90.7782°W
Report Text: KDBQ 271953Z 30010KT 10SM CLR M08/M16 A3038 RMK AO2 SLP308 T10831161
Loading
Personal Weather Stations






























Interactive Weather Map New forecast layout! Learn more

10-Day Weather Forecast

Advertisements
Track Severe Weather on mobile